Latest Weather Observations for Horsham AWS

IDV60801

Issued at 5:35 pm EDT Tuesday 21 October 2014 (issued every 30 minutes, with the page automatically refreshed every 10 minutes)

About weather observations | Map of weather stations | Latest weather observations for VIC | Other Formats
Station Details ID: 079100 Name: HORSHAM AERODROME Lat: -36.67 Lon: 142.17 Height: 133.8 m
Data from the previous 72 hours. | See also: Recent months at Horsham AWS
Date/Time
EDT
Temp
°C
App
Temp
°C
Dew
Point
Rel
Hum
%
Delta-T
°C
Wind Press
QNH
hPa
Press
MSL
hPa
Rain
since 9 am
mm
Dir
 
Spd
km/h
Gust
km/h
Spd
kts
Gust
kts
21/05:30pm 31.0 26.9 2.3 16 14.4 NNE 13 19 7 10 1020.2 1020.2 0.0
21/05:00pm 31.0 27.7 2.3 16 14.4 ENE 9 15 5 8 1020.4 1020.4 0.0
21/04:30pm 31.2 27.4 1.5 15 14.8 ENE 11 20 6 11 1020.7 1020.7 0.0
21/04:00pm 30.8 25.9 2.1 16 14.3 ENE 17 26 9 14 1021.1 1021.1 0.0
21/03:30pm 31.0 26.9 2.3 16 14.4 NNE 13 22 7 12 1021.6 1021.5 0.0
21/03:00pm 30.4 26.3 4.2 19 13.5 E 15 24 8 13 1022.0 1021.9 0.0
21/02:30pm 29.4 25.7 2.6 18 13.4 E 11 20 6 11 1022.5 1022.5 0.0
21/02:00pm 28.8 24.3 4.3 21 12.5 NNE 17 28 9 15 1023.0 1023.0 0.0
21/01:30pm 27.4 22.4 3.8 22 11.9 NNE 19 28 10 15 1023.5 1023.5 0.0
21/01:00pm 26.6 22.0 3.8 23 11.4 NNE 17 24 9 13 1023.9 1023.9 0.0
21/12:30pm 25.7 20.8 5.3 27 10.5 NE 20 33 11 18 1024.2 1024.2 0.0
21/12:00pm 24.1 19.4 7.7 35 8.7 E 22 30 12 16 1024.6 1024.6 0.0
21/11:30am 22.4 17.3 7.8 39 7.7 E 24 32 13 17 1024.8 1024.8 0.0
21/11:00am 21.1 16.5 8.0 43 6.8 ENE 22 30 12 16 1025.1 1025.1 0.0
21/10:30am 19.7 15.1 8.1 47 6.0 ENE 22 30 12 16 1025.3 1025.3 0.0
21/10:00am 17.9 12.8 7.6 51 5.2 ENE 24 32 13 17 1025.4 1025.4 0.0
21/09:30am 16.3 10.4 7.3 55 4.5 E 28 33 15 18 1025.3 1025.3 0.0
21/09:00am 15.1 8.7 6.9 58 4.0 E 30 37 16 20 1025.3 1025.3 0.0
21/08:30am 13.6 7.0 6.0 60 3.6 E 30 39 16 21 1025.1 1025.1 0.0
21/08:00am 11.6 6.9 5.9 68 2.7 E 20 26 11 14 1025.2 1025.2 0.0
21/07:30am 9.0 4.9 6.1 82 1.3 E 17 19 9 10 1024.7 1024.7 0.0
21/07:00am 7.3 3.4 5.4 88 0.8 E 15 17 8 9 1024.2 1024.2 0.0
21/06:30am 7.5 3.3 5.5 87 0.9 E 17 20 9 11 1024.1 1024.1 0.0
21/06:00am 7.8 3.2 5.8 87 0.9 E 19 22 10 12 1023.9 1023.9 0.0
21/05:30am 8.0 3.8 5.5 84 1.1 ESE 17 19 9 10 1023.6 1023.6 0.0
21/05:00am 8.9 4.4 6.0 82 1.3 ESE 19 22 10 12 1023.5 1023.5 0.0
21/04:30am 9.1 4.7 6.5 84 1.2 ESE 19 26 10 14 1023.6 1023.6 0.0
21/04:00am 8.9 4.5 6.7 86 1.0 ESE 19 22 10 12 1023.8 1023.8 0.0
21/03:30am 8.4 4.7 6.4 87 0.9 ESE 15 19 8 10 1024.2 1024.2 0.0
21/03:00am 9.0 5.3 6.4 84 1.2 E 15 19 8 10 1024.5 1024.5 0.0
21/02:30am 9.3 5.2 6.4 82 1.4 ESE 17 19 9 10 1024.4 1024.4 0.0
21/02:00am 10.0 6.0 6.5 79 1.6 E 17 22 9 12 1024.7 1024.7 0.0
21/01:30am 10.6 6.0 6.4 75 2.0 ESE 20 26 11 14 1025.0 1025.0 0.0
21/01:00am 11.4 6.1 6.9 74 2.1 ESE 24 32 13 17 1025.1 1025.1 0.0
21/12:30am 11.3 6.0 6.8 74 2.2 ESE 24 30 13 16 1025.3 1025.3 0.0
21/12:00am 11.9 6.6 6.6 70 2.5 ESE 24 30 13 16 1025.5 1025.5 0.0
 
Date/Time
EDT
Temp
°C
App
Temp
°C
Dew
Point
Rel
Hum
%
Delta-T
°C
Wind Press
QNH
hPa
Press
MSL
hPa
Rain
since 9 am
mm
Dir
 
Spd
km/h
Gust
km/h
Spd
kts
Gust
kts
20/11:30pm 12.4 6.7 6.5 67 2.8 ESE 26 35 14 19 1025.6 1025.6 0.0
20/11:00pm 13.1 7.7 6.2 63 3.3 ESE 24 33 13 18 1025.7 1025.7 0.0
20/10:30pm 13.8 7.9 5.9 59 3.8 ESE 26 37 14 20 1025.5 1025.5 0.0
20/10:00pm 14.6 8.6 5.4 54 4.4 ESE 26 39 14 21 1025.5 1025.5 0.0
20/09:30pm 15.7 9.5 4.4 47 5.3 ESE 26 35 14 19 1025.3 1025.3 0.0
20/09:00pm 16.6 10.2 3.3 41 6.1 ESE 26 35 14 19 1025.1 1025.1 0.0
20/08:30pm 16.9 11.4 2.1 37 6.7 ESE 20 26 11 14 1024.9 1024.9 0.0
20/08:00pm 18.1 11.8 1.6 33 7.4 ESE 24 35 13 19 1024.6 1024.6 0.0
20/07:30pm 19.8 13.1 1.3 29 8.4 ESE 26 37 14 20 1024.4 1024.4 0.0
20/07:00pm 21.3 15.0 1.6 27 9.1 ESE 24 33 13 18 1024.1 1024.1 0.0
20/06:30pm 23.0 16.7 1.4 24 10.1 ESE 24 30 13 16 1024.0 1024.0 0.0
20/06:00pm 23.8 17.8 0.8 22 10.7 ESE 22 32 12 17 1024.2 1024.2 0.0
20/05:30pm 24.1 18.1 1.1 22 10.8 SE 22 33 12 18 1024.3 1024.3 0.0
20/05:00pm 24.8 19.3 1.7 22 11.0 SE 20 28 11 15 1024.1 1024.1 0.0
20/04:30pm 25.6 20.7 1.7 21 11.5 SSE 17 28 9 15 1024.3 1024.3 0.0
20/04:00pm 25.2 21.7 1.3 21 11.3 ESE 9 19 5 10 1024.6 1024.6 0.0
20/03:30pm 24.8 20.1 1.0 21 11.2 SE 15 24 8 13 1024.8 1024.8 0.0
20/03:00pm 24.8 20.3 2.3 23 10.8 SE 15 26 8 14 1025.1 1025.1 0.0
20/02:30pm 23.9 18.5 1.5 23 10.6 SE 19 24 10 13 1025.6 1025.6 0.0
20/02:00pm 23.5 18.3 2.4 25 10.0 SE 19 28 10 15 1025.9 1025.9 0.0
20/01:30pm 22.0 17.1 2.2 27 9.3 SE 17 28 9 15 1026.4 1026.4 0.0
20/01:00pm 21.5 16.3 2.7 29 8.9 SE 19 28 10 15 1026.7 1026.7 0.0
20/12:30pm 20.5 15.4 2.8 31 8.4 ESE 19 28 10 15 1027.2 1027.2 0.0
20/12:00pm 19.0 13.1 2.0 32 7.8 ESE 22 32 12 17 1027.8 1027.8 0.0
20/11:30am 18.2 12.0 2.1 34 7.4 ESE 24 32 13 17 1028.1 1028.1 0.0
20/11:00am 18.3 12.3 3.4 37 6.9 SE 24 33 13 18 1028.3 1028.3 0.0
20/10:30am 16.4 9.5 2.8 40 6.2 ESE 28 37 15 20 1028.4 1028.5 0.0
20/10:00am 15.0 7.8 3.2 45 5.3 ESE 30 39 16 21 1028.5 1028.6 0.0
20/09:30am 14.2 6.8 3.9 50 4.7 ESE 32 41 17 22 1028.2 1028.2 0.0
20/09:00am 12.8 5.3 4.3 56 3.9 ESE 33 43 18 23 1027.9 1027.9 0.0
20/08:30am 12.2 4.8 4.2 58 3.6 ESE 32 44 17 24 1027.6 1027.6 0.0
20/08:00am 11.1 4.4 3.9 61 3.2 ESE 28 41 15 22 1027.3 1027.3 0.0
20/07:30am 10.2 2.8 4.8 69 2.4 SE 33 46 18 25 1027.2 1027.2 0.0
20/07:00am 9.5 2.4 5.3 75 1.9 ESE 32 39 17 21 1026.8 1026.8 0.0
20/06:30am 9.3 2.5 5.1 75 1.9 ESE 30 41 16 22 1026.4 1026.4 0.0
20/06:00am 9.6 2.5 5.4 75 1.9 SE 32 44 17 24 1026.0 1026.0 0.0
20/05:30am 9.9 2.7 5.9 76 1.9 SE 33 46 18 25 1025.7 1025.7 0.0
20/05:00am 10.1 2.5 5.9 75 1.9 SE 35 48 19 26 1025.5 1025.5 0.0
20/04:43am 10.1 3.1 5.9 75 1.9 ESE 32 50 17 27 1025.3 1025.3 0.0
20/04:30am 10.3 2.8 6.3 76 1.9 ESE 35 48 19 26 1025.3 1025.3 0.0
20/04:00am 10.6 4.1 6.7 77 1.8 ESE 30 41 16 22 1025.3 1025.3 0.0
20/03:30am 10.7 4.0 7.4 80 1.6 SE 32 46 17 25 1025.4 1025.4 0.0
20/03:00am 11.1 4.4 7.4 78 1.8 SE 32 44 17 24 1025.3 1025.3 0.0
20/02:30am 10.9 6.5 7.6 80 1.6 SE 20 28 11 15 1025.5 1025.5 0.0
20/02:00am 10.5 6.7 7.7 83 1.3 SE 17 22 9 12 1025.6 1025.6 0.0
20/01:30am 10.8 7.1 8.0 83 1.4 SE 17 24 9 13 1025.5 1025.5 0.0
20/01:00am 11.0 7.4 8.2 83 1.4 SE 17 24 9 13 1025.6 1025.6 0.0
20/12:30am 10.0 7.1 6.7 80 1.6 SE 11 17 6 9 1025.5 1025.5 0.0
20/12:00am 12.5 8.2 8.0 74 2.2 SSE 20 26 11 14 1025.2 1025.2 0.0
 
Date/Time
EDT
Temp
°C
App
Temp
°C
Dew
Point
Rel
Hum
%
Delta-T
°C
Wind Press
QNH
hPa
Press
MSL
hPa
Rain
since 9 am
mm
Dir
 
Spd
km/h
Gust
km/h
Spd
kts
Gust
kts
19/11:30pm 13.1 8.1 8.0 71 2.5 SSE 24 35 13 19 1025.3 1025.3 0.0
19/11:00pm 13.4 8.5 8.5 72 2.5 S 24 33 13 18 1025.2 1025.2 0.0
19/10:30pm 13.5 9.8 9.4 76 2.1 S 19 24 10 13 1024.8 1024.8 0.0
19/10:00pm 14.0 10.1 9.6 75 2.3 S 20 26 11 14 1024.6 1024.6 0.0
19/09:30pm 14.7 10.2 9.9 73 2.5 S 24 32 13 17 1024.5 1024.5 0.0
19/09:00pm 15.4 10.9 10.2 71 2.7 S 24 33 13 18 1024.5 1024.5 0.0
19/08:30pm 16.2 11.8 10.5 69 3.0 S 24 32 13 17 1024.0 1024.0 0.0
19/08:00pm 17.1 12.4 10.7 66 3.4 S 26 35 14 19 1023.3 1023.3 0.0
19/07:30pm 18.2 10.4 11.3 64 3.8 SSW 43 50 23 27 1022.9 1022.9 0.0
19/07:00pm 21.6 15.2 11.9 54 5.4 S 37 44 20 24 1021.7 1021.6 0.0
19/06:30pm 25.8 20.6 10.4 38 8.6 SSW 28 37 15 20 1020.5 1020.5 0.0
19/06:00pm 27.0 20.0 9.8 34 9.6 SW 37 48 20 26 1020.2 1020.2 0.0
19/05:53pm 27.3 19.1 6.7 27 10.9 SSW 39 46 21 25 1020.0 1020.0 0.0
19/05:47pm 28.7 20.7 0.4 16 13.6 WSW 32 50 17 27 1019.8 1019.8 0.0
19/05:30pm 30.2 20.6 -1.2 13 14.8 WSW 39 50 21 27 1019.6 1019.6 0.0
19/05:25pm 30.6 21.2 0.1 14 14.7 SW 39 50 21 27 1019.5 1019.5 0.0
19/05:00pm 30.2 20.5 -2.3 12 15.0 W 39 50 21 27 1019.3 1019.3 0.0
19/04:30pm 31.7 22.8 -2.3 11 15.9 W 35 48 19 26 1019.0 1019.0 0.0
19/04:00pm 31.6 23.2 -2.4 11 15.8 W 32 44 17 24 1018.8 1018.8 0.0
19/03:30pm 33.1 24.5 -4.0 9 17.0 W 32 48 17 26 1018.7 1018.7 0.0
19/03:00pm 33.7 24.4 -5.1 8 17.5 W 35 50 19 27 1018.9 1018.9 0.0
19/02:35pm 33.4 24.3 -3.7 9 17.2 NW 35 41 19 22 1018.9 1018.9 0.0
19/02:30pm 33.5 24.0 -3.7 9 17.2 W 37 54 20 29 1018.9 1018.9 0.0
19/02:19pm 34.4 25.4 -3.0 9 17.6 WNW 35 59 19 32 1018.9 1018.9 0.0
19/02:00pm 33.5 25.0 -3.7 9 17.2 NW 32 44 17 24 1019.1 1019.1 0.0
19/01:32pm 33.7 25.2 -2.1 10 17.0 NW 33 52 18 28 1019.3 1019.3 0.0
19/01:30pm 32.5 23.8 -3.0 10 16.5 NW 33 44 18 24 1019.4 1019.4 0.0
19/01:00pm 31.5 22.8 -3.8 10 16.0 NW 33 44 18 24 1019.8 1019.8 0.0
19/12:51pm 32.1 23.6 -3.3 10 16.3 NW 32 50 17 27 1020.0 1020.0 0.0
19/12:30pm 30.5 21.4 -3.3 11 15.4 NW 35 46 19 25 1020.2 1020.2 0.0
19/12:00pm 31.0 22.0 -2.9 11 15.6 NW 35 46 19 25 1020.4 1020.4 0.0
19/11:30am 28.2 20.8 -0.9 15 13.6 NW 28 35 15 19 1020.7 1020.7 0.0
19/11:00am 26.1 20.3 0.0 18 12.1 NNW 20 26 11 14 1021.0 1021.0 0.0
19/10:30am 24.6 18.6 -1.3 18 11.7 NNW 20 30 11 16 1021.4 1021.3 0.0
19/10:00am 24.3 18.3 -1.5 18 11.5 N 20 28 11 15 1021.1 1021.1 0.0
19/09:30am 22.1 15.8 -1.2 21 10.3 N 22 30 12 16 1021.2 1021.2 0.0
19/09:00am 20.6 14.9 -0.7 24 9.4 N 19 22 10 12 1021.6 1021.5 0.0
19/08:30am 17.3 12.2 -1.9 27 8.0 NNE 15 17 8 9 1021.7 1021.6 0.0
19/08:00am 14.9 10.6 -1.6 32 6.7 ENE 11 13 6 7 1021.4 1021.3 0.0
19/07:30am 13.8 9.0 -2.2 33 6.4 E 13 15 7 8 1020.9 1020.9 0.0
19/07:00am 13.3 7.7 -3.0 32 6.4 ENE 17 20 9 11 1020.4 1020.4 0.0
19/06:30am 12.8 7.3 -2.3 35 6.0 ENE 17 19 9 10 1020.0 1020.0 0.0
19/06:00am 11.9 6.8 -1.9 38 5.4 ENE 15 17 8 9 1019.9 1019.9 0.0
19/05:30am 12.9 7.0 -2.2 35 6.0 NE 19 19 10 10 1019.9 1019.9 0.0
19/05:00am 13.3 7.8 -1.8 35 6.0 NE 17 20 9 11 1019.9 1019.9 0.0
19/04:30am 13.2 7.8 -1.5 36 5.9 NE 17 20 9 11 1019.9 1019.9 0.0
19/04:00am 11.5 6.5 -1.3 41 5.1 NE 15 17 8 9 1020.3 1020.3 0.0
19/03:30am 11.3 5.8 -1.8 40 5.2 NE 17 20 9 11 1020.5 1020.5 0.0
19/03:00am 13.3 7.3 -1.8 35 6.0 NNE 20 22 11 12 1020.5 1020.5 0.0
19/02:30am 13.9 7.9 -1.7 34 6.3 NNE 20 22 11 12 1020.7 1020.7 0.0
19/02:00am 15.3 9.3 -1.7 31 7.0 NNE 20 22 11 12 1021.0 1021.0 0.0
19/01:30am 14.2 8.2 -1.4 34 6.4 NNE 20 24 11 13 1021.5 1021.4 0.0
19/01:00am 12.6 6.8 -1.7 37 5.7 NNE 19 20 10 11 1021.7 1021.6 0.0
19/12:30am 15.9 9.9 -1.2 31 7.1 NNE 20 22 11 12 1021.8 1021.7 0.0
19/12:00am 13.6 8.5 -1.6 35 6.1 N 15 17 8 9 1021.9 1021.8 0.0
 
Date/Time
EDT
Temp
°C
App
Temp
°C
Dew
Point
Rel
Hum
%
Delta-T
°C
Wind Press
QNH
hPa
Press
MSL
hPa
Rain
since 9 am
mm
Dir
 
Spd
km/h
Gust
km/h
Spd
kts
Gust
kts
18/11:30pm 16.9 12.7 -1.2 29 7.6 NW 11 17 6 9 1021.9 1021.8 0.0
18/11:00pm 18.3 12.8 -2.0 25 8.5 WNW 17 26 9 14 1021.9 1021.8 0.0
18/10:30pm 18.5 12.5 -1.9 25 8.6 NNE 20 24 11 13 1021.1 1021.1 0.0
18/10:00pm 17.6 11.2 -1.6 27 8.1 NNE 22 24 12 13 1021.1 1021.1 0.0
18/09:30pm 17.9 11.9 -1.3 27 8.2 NNE 20 24 11 13 1021.1 1021.1 0.0
18/09:00pm 18.5 12.7 -1.3 26 8.4 NNE 19 22 10 12 1020.9 1020.9 0.0
18/08:30pm 19.9 14.2 -0.7 25 9.0 NNE 19 22 10 12 1020.6 1020.6 0.0
18/08:00pm 21.0 15.7 -0.9 23 9.6 NNE 17 19 9 10 1020.3 1020.3 0.0
18/07:30pm 25.1 19.8 -0.9 18 11.8 N 17 19 9 10 1020.2 1020.2 0.0
18/07:00pm 27.3 21.5 -1.6 15 13.2 N 19 24 10 13 1019.9 1019.9 0.0
18/06:30pm 28.5 22.4 -2.6 13 14.1 N 20 28 11 15 1020.0 1020.0 0.0
18/06:00pm 29.0 21.7 -3.2 12 14.5 N 26 35 14 19 1019.9 1019.9 0.0

Other Formats:

Comma delimited format used in spreadsheet applications
http://www.bom.gov.au/fwo/IDV60801/IDV60801.95839.axf

JavaScript Object Notation format (JSON) in row-major order
http://www.bom.gov.au/fwo/IDV60801/IDV60801.95839.json